Time;durP1;ratioP1;P1;durP2;ratioP2;P2;SDS_P1;SDS_P2;PMS_P1;PMS_P2;Temp;Humidity;BMP_temperature;BMP_pressure;BME280_temperature;BME280_humidity;BME280_pressure;Samples;Min_cycle;Max_cycle;Signal;HPM_P1;HPM_P2
2021/09/14 00:01:44;;;;;;;10.18;7.97;;;14.00;94.20;;;;;;4934849;29;20051;-82
2021/09/14 00:04:09;;;;;;;9.60;8.38;;;14.00;94.20;;;;;;4902953;29;20480;-82
2021/09/14 00:06:39;;;;;;;10.27;8.48;;;14.00;94.20;;;;;;4918925;29;20032;-82
2021/09/14 00:09:06;;;;;;;11.63;8.60;;;14.00;94.20;;;;;;4902851;29;20036;-82
2021/09/14 00:11:34;;;;;;;10.80;8.77;;;14.00;94.20;;;;;;4920371;29;20036;-82
2021/09/14 00:13:59;;;;;;;11.75;9.80;;;14.00;94.20;;;;;;4920813;29;20035;-81
2021/09/14 00:16:25;;;;;;;12.52;9.73;;;14.00;94.30;;;;;;4919186;29;20044;-82
2021/09/14 00:18:51;;;;;;;11.73;10.27;;;13.90;94.30;;;;;;4918547;29;20035;-83
2021/09/14 00:21:17;;;;;;;13.98;11.73;;;13.90;94.50;;;;;;4919877;29;20062;-82
2021/09/14 00:23:43;;;;;;;14.40;10.73;;;13.80;94.60;;;;;;4871681;29;20037;-82
2021/09/14 00:26:09;;;;;;;13.07;10.00;;;13.80;94.70;;;;;;4919915;29;20389;-82
2021/09/14 00:28:34;;;;;;;13.90;11.57;;;13.70;94.80;;;;;;4919093;29;20432;-82
2021/09/14 00:31:00;;;;;;;18.88;10.50;;;13.70;94.90;;;;;;4901936;29;20469;-81
2021/09/14 00:33:26;;;;;;;14.05;11.30;;;13.70;94.90;;;;;;4918066;29;20035;-82
2021/09/14 00:35:51;;;;;;;14.13;11.38;;;13.70;95.00;;;;;;4886155;29;20055;-83
2021/09/14 00:38:17;;;;;;;14.45;11.07;;;13.70;95.10;;;;;;4917801;29;20088;-82
2021/09/14 00:40:43;;;;;;;14.93;11.13;;;13.70;95.10;;;;;;4916721;29;20044;-82
2021/09/14 00:43:08;;;;;;;13.52;11.90;;;13.60;95.10;;;;;;4886290;29;20032;-82
2021/09/14 00:45:34;;;;;;;14.82;11.82;;;13.60;95.20;;;;;;4886484;29;20028;-82
2021/09/14 00:47:59;;;;;;;16.13;11.95;;;13.60;95.20;;;;;;4902551;29;20063;-84
2021/09/14 00:50:26;;;;;;;17.20;12.70;;;13.60;95.30;;;;;;4902161;29;20032;-82
2021/09/14 00:52:52;;;;;;;15.77;12.73;;;13.60;95.40;;;;;;4917823;29;20507;-82
2021/09/14 00:55:18;;;;;;;17.95;12.45;;;13.50;95.40;;;;;;4901939;29;20075;-83
2021/09/14 00:57:44;;;;;;;14.55;12.75;;;13.60;95.60;;;;;;4902000;29;20056;-84
2021/09/14 01:00:09;;;;;;;13.65;12.25;;;13.50;95.60;;;;;;4885952;29;20043;-83
2021/09/14 01:02:35;;;;;;;16.10;13.13;;;13.50;95.60;;;;;;4902431;29;20083;-83
2021/09/14 01:05:03;;;;;;;17.08;12.50;;;13.50;95.60;;;;;;4917048;29;20032;-83
2021/09/14 01:07:28;;;;;;;16.77;13.98;;;13.50;95.60;;;;;;4902347;29;20325;-83
2021/09/14 01:09:55;;;;;;;15.93;13.43;;;13.40;95.70;;;;;;4917803;29;20122;-83
2021/09/14 01:12:21;;;;;;;16.88;13.10;;;13.40;95.70;;;;;;4917549;29;20118;-83
2021/09/14 01:14:57;;;;;;;13.75;12.35;;;13.40;95.80;;;;;;4917127;29;20071;-83
2021/09/14 01:17:27;;;;;;;15.80;13.65;;;13.40;95.80;;;;;;4901602;29;20021;-83
2021/09/14 01:19:53;;;;;;;20.38;14.27;;;13.40;95.90;;;;;;4917759;29;20030;-83
2021/09/14 01:22:18;;;;;;;18.60;13.90;;;13.30;95.90;;;;;;4901508;29;20028;-82
2021/09/14 01:24:44;;;;;;;16.00;13.60;;;13.30;96.20;;;;;;4886487;29;20059;-83
2021/09/14 01:27:10;;;;;;;15.50;13.80;;;13.30;96.00;;;;;;4870402;29;20040;-83
2021/09/14 01:32:20;;;;;;;15.88;13.55;;;13.30;96.10;;;;;;4903951;29;20039;-82
2021/09/14 01:34:46;;;;;;;15.75;14.13;;;13.30;96.10;;;;;;4901168;29;20044;-83
2021/09/14 01:37:12;;;;;;;20.15;14.43;;;13.30;96.10;;;;;;4901356;29;20040;-83
2021/09/14 01:39:37;;;;;;;20.65;15.88;;;13.30;96.20;;;;;;4932629;29;20032;-83
2021/09/14 01:42:03;;;;;;;18.88;15.23;;;13.30;96.30;;;;;;4916633;29;20032;-83
2021/09/14 01:44:29;;;;;;;18.85;15.30;;;13.20;96.30;;;;;;4901040;29;20131;-83
2021/09/14 01:46:55;;;;;;;24.75;17.10;;;13.20;96.30;;;;;;4901889;29;20043;-82
2021/09/14 01:49:21;;;;;;;20.38;15.68;;;13.20;96.30;;;;;;4900910;29;20048;-83
2021/09/14 01:51:46;;;;;;;17.20;15.40;;;13.20;96.40;;;;;;4900943;29;20463;-83
2021/09/14 01:54:12;;;;;;;19.77;16.10;;;13.20;96.40;;;;;;4885157;29;20068;-83
2021/09/14 01:56:38;;;;;;;19.67;15.95;;;13.10;96.50;;;;;;4885067;29;20396;-83
2021/09/14 01:59:05;;;;;;;20.50;17.52;;;13.10;96.50;;;;;;4900847;29;20028;-82
2021/09/14 02:01:35;;;;;;;17.00;15.10;;;13.10;96.60;;;;;;4870390;29;20032;-83
2021/09/14 02:04:35;;;;;;;20.05;16.33;;;13.10;96.70;;;;;;4901299;29;20388;-83
2021/09/14 02:23:41;;;;;;;18.77;15.57;;;13.10;96.70;;;;;;4904716;29;20036;-83
2021/09/14 02:42:33;;;;;;;21.85;18.02;;;12.80;97.00;;;;;;4921999;29;20086;-84
2021/09/14 03:00:47;;;;;;;26.10;20.55;;;12.70;97.30;;;;;;4905260;29;20047;-84
2021/09/14 03:03:12;;;;;;;28.60;22.45;;;12.70;97.30;;;;;;4885061;29;20048;-84
2021/09/14 03:05:38;;;;;;;27.27;21.13;;;12.70;97.40;;;;;;4886836;29;20039;-83
2021/09/14 03:08:04;;;;;;;30.27;23.23;;;12.70;97.50;;;;;;4933404;29;20107;-83
2021/09/14 03:10:29;;;;;;;25.60;21.77;;;12.70;97.50;;;;;;4918104;29;20098;-83
2021/09/14 03:12:55;;;;;;;28.20;22.63;;;12.70;97.50;;;;;;4916578;29;20039;-83
2021/09/14 03:15:21;;;;;;;27.90;22.48;;;12.70;97.60;;;;;;4930587;29;20032;-83
2021/09/14 03:17:46;;;;;;;30.30;23.38;;;12.70;97.60;;;;;;4910396;29;20028;-83
2021/09/14 03:20:12;;;;;;;29.05;23.85;;;12.70;97.60;;;;;;4907149;29;20044;-83
2021/09/14 03:22:38;;;;;;;29.77;23.88;;;12.70;97.70;;;;;;4922867;29;20027;-83
2021/09/14 03:25:04;;;;;;;27.85;22.88;;;12.60;97.70;;;;;;4905988;29;20032;-82
2021/09/14 03:27:30;;;;;;;29.23;23.83;;;12.60;97.80;;;;;;4875723;29;20400;-83
2021/09/14 03:29:56;;;;;;;31.75;24.70;;;12.60;97.80;;;;;;4922689;29;20048;-82
2021/09/14 03:32:21;;;;;;;30.30;25.17;;;12.60;97.80;;;;;;4906242;29;20449;-83
2021/09/14 03:34:47;;;;;;;34.45;26.05;;;12.60;97.90;;;;;;4905467;29;20160;-83
2021/09/14 03:37:12;;;;;;;31.75;25.30;;;12.60;98.00;;;;;;4873925;29;20400;-82
2021/09/14 03:39:38;;;;;;;27.63;24.27;;;12.60;98.00;;;;;;4890707;29;20040;-82
2021/09/14 03:42:04;;;;;;;31.95;25.23;;;12.50;97.90;;;;;;4921337;29;20056;-82
2021/09/14 03:44:29;;;;;;;32.85;26.95;;;12.50;97.90;;;;;;4889783;29;20066;-82
2021/09/14 03:46:55;;;;;;;31.73;25.25;;;12.50;98.00;;;;;;4889904;29;20032;-82
2021/09/14 03:49:21;;;;;;;32.10;26.97;;;12.50;98.00;;;;;;4922651;29;20028;-84
2021/09/14 03:51:46;;;;;;;31.30;26.60;;;12.50;98.10;;;;;;4905543;29;20028;-82
2021/09/14 03:54:12;;;;;;;33.70;25.73;;;12.40;98.10;;;;;;4890025;29;20153;-83
2021/09/14 03:56:37;;;;;;;31.60;24.92;;;12.40;98.10;;;;;;4905745;29;20040;-83
2021/09/14 03:59:04;;;;;;;33.03;25.03;;;12.40;98.10;;;;;;4904756;29;20083;-83
2021/09/14 04:01:34;;;;;;;31.90;26.33;;;12.40;98.10;;;;;;4891032;29;20049;-83
2021/09/14 04:04:08;;;;;;;31.73;26.23;;;12.50;98.20;;;;;;4921606;29;20099;-84
2021/09/14 04:06:53;;;;;;;26.98;23.80;;;12.40;98.20;;;;;;4893140;29;20060;-83
2021/09/14 04:09:19;;;;;;;29.38;23.67;;;12.40;98.20;;;;;;4892365;29;20042;-85
2021/09/14 04:11:47;;;;;;;31.90;23.73;;;12.40;98.10;;;;;;4921072;29;20127;-83
2021/09/14 04:14:13;;;;;;;29.17;24.53;;;12.30;98.10;;;;;;4905731;29;20111;-83
2021/09/14 04:16:38;;;;;;;29.97;23.50;;;12.30;98.10;;;;;;4891112;29;20043;-83
2021/09/14 04:19:04;;;;;;;28.15;23.70;;;12.30;98.20;;;;;;4921259;29;20032;-83
2021/09/14 04:21:30;;;;;;;29.47;23.97;;;12.30;98.20;;;;;;4875625;29;20036;-83
2021/09/14 04:23:55;;;;;;;30.42;23.77;;;12.30;98.10;;;;;;4874838;29;20031;-83
2021/09/14 04:26:21;;;;;;;27.10;22.87;;;12.30;98.10;;;;;;4875572;29;20040;-83
2021/09/14 04:28:47;;;;;;;27.25;22.92;;;12.30;98.10;;;;;;4875279;29;20381;-83
2021/09/14 04:31:12;;;;;;;28.17;22.73;;;12.30;98.10;;;;;;4889160;29;20036;-82
2021/09/14 04:33:38;;;;;;;27.02;22.95;;;12.30;98.30;;;;;;4907282;29;20421;-83
2021/09/14 04:36:04;;;;;;;28.73;22.50;;;12.30;98.10;;;;;;4917101;29;20036;-85
2021/09/14 04:38:30;;;;;;;27.15;22.35;;;12.30;98.10;;;;;;4922910;29;20056;-84
2021/09/14 04:40:56;;;;;;;26.85;22.35;;;12.30;98.10;;;;;;4892991;29;20024;-83
2021/09/14 04:43:22;;;;;;;29.38;22.83;;;12.30;98.10;;;;;;4957464;28;20024;-83
2021/09/14 04:45:48;;;;;;;26.83;23.50;;;12.30;98.10;;;;;;4924439;29;20097;-83
2021/09/14 04:48:14;;;;;;;27.88;23.85;;;12.30;98.10;;;;;;4924641;29;20028;-84
2021/09/14 04:50:40;;;;;;;26.55;23.30;;;12.30;98.10;;;;;;4941097;29;20028;-83
2021/09/14 04:53:06;;;;;;;29.15;23.30;;;12.20;98.10;;;;;;4956319;29;20048;-83
2021/09/14 04:55:31;;;;;;;26.80;22.73;;;12.20;98.10;;;;;;4921549;29;20060;-84
2021/09/14 04:57:57;;;;;;;30.13;23.75;;;12.20;98.10;;;;;;4937386;29;20036;-83
2021/09/14 05:00:23;;;;;;;28.45;23.63;;;12.20;98.10;;;;;;4920856;29;20059;-84
2021/09/14 05:02:48;;;;;;;36.15;27.25;;;12.20;98.10;;;;;;4937058;29;20043;-83
2021/09/14 05:05:14;;;;;;;33.72;26.88;;;12.30;98.20;;;;;;4918574;29;20047;-83
2021/09/14 05:07:40;;;;;;;34.10;27.15;;;12.30;98.20;;;;;;4934737;29;20032;-83
2021/09/14 05:10:06;;;;;;;34.30;27.67;;;12.30;98.20;;;;;;4918758;29;20036;-83
2021/09/14 05:12:32;;;;;;;31.83;26.65;;;12.40;98.20;;;;;;4933704;29;20104;-83
2021/09/14 05:14:58;;;;;;;36.78;28.70;;;12.40;98.20;;;;;;4931910;29;20043;-83
2021/09/14 05:17:23;;;;;;;31.17;27.17;;;12.40;98.20;;;;;;4892645;29;20488;-83
2021/09/14 05:19:50;;;;;;;37.13;28.13;;;12.40;98.20;;;;;;4871808;29;20028;-83
2021/09/14 05:22:20;;;;;;;33.45;27.40;;;12.40;98.20;;;;;;4871422;29;20025;-82
2021/09/14 05:24:46;;;;;;;33.20;26.58;;;12.50;98.40;;;;;;4887512;29;20043;-82
2021/09/14 05:27:12;;;;;;;29.98;24.52;;;12.50;98.30;;;;;;4903188;29;20086;-83
2021/09/14 05:29:37;;;;;;;37.67;25.90;;;12.60;98.20;;;;;;4934333;29;20028;-81
2021/09/14 05:32:04;;;;;;;35.72;28.50;;;12.60;98.20;;;;;;4902947;29;20087;-82
2021/09/14 05:34:31;;;;;;;35.55;29.77;;;12.70;98.10;;;;;;4920077;29;20036;-83
2021/09/14 05:36:56;;;;;;;36.92;29.38;;;12.90;98.20;;;;;;4934858;29;20043;-83
2021/09/14 05:39:22;;;;;;;32.08;27.17;;;13.20;98.20;;;;;;4886824;29;20032;-83
2021/09/14 05:41:48;;;;;;;31.33;25.77;;;13.70;98.10;;;;;;4920046;29;20031;-83
2021/09/14 05:44:14;;;;;;;27.70;24.40;;;14.20;97.50;;;;;;4901412;29;20122;-82
2021/09/14 05:46:40;;;;;;;27.08;22.05;;;14.70;96.50;;;;;;4871325;29;20043;-82
2021/09/14 05:49:05;;;;;;;24.58;20.13;;;15.10;95.50;;;;;;4871350;29;20118;-82
2021/09/14 05:51:31;;;;;;;22.90;19.67;;;15.60;94.50;;;;;;4902857;29;20395;-82
2021/09/14 05:53:57;;;;;;;21.88;18.10;;;16.00;93.10;;;;;;4917658;29;20063;-82
2021/09/14 05:56:23;;;;;;;20.98;18.45;;;16.30;92.00;;;;;;4918451;29;20434;-81
2021/09/14 05:58:48;;;;;;;19.58;17.20;;;16.10;91.30;;;;;;4901921;29;20404;-82
2021/09/14 06:01:14;;;;;;;19.13;15.93;;;15.80;91.50;;;;;;4886745;29;20040;-83
2021/09/14 06:03:44;;;;;;;23.35;17.80;;;15.50;91.90;;;;;;4918851;29;20043;-83
2021/09/14 06:06:10;;;;;;;21.65;17.52;;;15.30;92.30;;;;;;4933019;29;20035;-83
2021/09/14 06:08:35;;;;;;;20.90;18.02;;;15.40;92.80;;;;;;4915766;29;20032;-82
2021/09/14 06:11:01;;;;;;;19.85;17.75;;;15.60;92.70;;;;;;4869395;29;20028;-83
2021/09/14 06:13:27;;;;;;;18.70;16.30;;;16.10;92.30;;;;;;4917498;29;20032;-83
2021/09/14 06:15:52;;;;;;;20.00;17.35;;;16.50;91.30;;;;;;4885208;29;20028;-83
2021/09/14 06:18:18;;;;;;;19.27;16.02;;;16.50;90.40;;;;;;4916095;29;20088;-83
2021/09/14 06:20:45;;;;;;;19.25;17.15;;;16.50;90.50;;;;;;4916689;29;20127;-82
2021/09/14 06:23:11;;;;;;;19.33;16.13;;;16.30;90.80;;;;;;4885423;29;20036;-83
2021/09/14 06:25:37;;;;;;;20.00;16.38;;;16.30;90.90;;;;;;4884488;29;20032;-81
2021/09/14 06:28:04;;;;;;;18.02;16.20;;;16.60;90.90;;;;;;4885272;29;20461;-81
2021/09/14 06:30:29;;;;;;;21.15;17.00;;;16.70;90.20;;;;;;4900882;29;20075;-82
2021/09/14 06:32:55;;;;;;;21.50;16.95;;;16.70;90.30;;;;;;4916199;29;20408;-82
2021/09/14 06:35:21;;;;;;;18.40;16.45;;;16.80;90.10;;;;;;4915847;29;20465;-83
2021/09/14 06:37:46;;;;;;;18.73;15.77;;;16.80;90.10;;;;;;4869168;29;20076;-84
2021/09/14 06:40:12;;;;;;;17.83;16.00;;;16.90;90.10;;;;;;4902301;29;20472;-82
2021/09/14 06:42:38;;;;;;;19.25;16.40;;;16.90;90.00;;;;;;4889143;29;20137;-84
2021/09/14 06:45:04;;;;;;;19.88;16.98;;;17.10;89.60;;;;;;4919489;29;20103;-82
2021/09/14 06:47:30;;;;;;;18.60;16.67;;;17.10;88.90;;;;;;4919537;29;20036;-83
2021/09/14 06:49:56;;;;;;;19.42;16.17;;;17.00;88.80;;;;;;4904133;29;20079;-83
2021/09/14 06:52:21;;;;;;;18.42;16.17;;;17.00;89.40;;;;;;4887941;29;20070;-83
2021/09/14 06:54:47;;;;;;;19.52;17.50;;;16.90;89.60;;;;;;4904290;29;20143;-83
2021/09/14 06:57:12;;;;;;;21.17;18.90;;;16.90;89.50;;;;;;4904147;29;20078;-83
2021/09/14 06:59:38;;;;;;;20.02;17.17;;;16.60;90.00;;;;;;4872872;29;20039;-84
2021/09/14 07:02:04;;;;;;;21.85;18.45;;;16.50;90.40;;;;;;4888066;29;20028;-83
2021/09/14 07:04:29;;;;;;;20.38;18.00;;;16.40;90.90;;;;;;4904102;29;20028;-83
2021/09/14 07:06:55;;;;;;;20.33;18.13;;;16.30;91.20;;;;;;4871990;29;20067;-84
2021/09/14 07:09:21;;;;;;;21.58;18.48;;;16.40;91.40;;;;;;4919189;29;20035;-84
2021/09/14 07:11:47;;;;;;;19.55;17.10;;;16.40;91.40;;;;;;4918813;29;20422;-84
2021/09/14 07:14:13;;;;;;;20.00;17.23;;;16.70;91.50;;;;;;4871899;29;20047;-83
2021/09/14 07:16:38;;;;;;;21.23;17.00;;;17.10;90.70;;;;;;4903665;29;20043;-83
2021/09/14 07:19:04;;;;;;;19.15;17.00;;;17.30;90.10;;;;;;4903550;29;20028;-84
2021/09/14 07:21:31;;;;;;;20.15;16.60;;;17.40;89.80;;;;;;4934699;29;20420;-85
2021/09/14 07:23:57;;;;;;;21.75;16.83;;;17.70;89.40;;;;;;4903812;29;20032;-85
2021/09/14 07:26:22;;;;;;;17.38;15.57;;;18.00;88.10;;;;;;4873677;29;20491;-85
2021/09/14 07:28:48;;;;;;;17.95;14.90;;;18.30;87.40;;;;;;4905530;29;20032;-85
2021/09/14 07:31:16;;;;;;;17.10;14.75;;;18.70;86.00;;;;;;4904173;29;20036;-86
2021/09/14 07:33:43;;;;;;;18.58;15.23;;;19.30;84.40;;;;;;4934842;29;20036;-85
2021/09/14 07:36:08;;;;;;;15.40;13.85;;;20.00;81.30;;;;;;4934651;29;20408;-84
2021/09/14 07:38:40;;;;;;;16.02;13.70;;;20.40;79.80;;;;;;4903613;29;20033;-83
2021/09/14 07:41:06;;;;;;;13.20;11.63;;;20.90;76.50;;;;;;4935136;29;20067;-82
2021/09/14 07:43:33;;;;;;;13.38;11.98;;;21.30;75.50;;;;;;4921227;29;20180;-83
2021/09/14 07:45:59;;;;;;;13.00;11.68;;;21.80;73.40;;;;;;4903624;29;20036;-84
2021/09/14 07:48:25;;;;;;;11.32;10.13;;;22.20;71.90;;;;;;4904807;29;20107;-82
2021/09/14 07:50:51;;;;;;;13.38;11.20;;;22.50;71.00;;;;;;4921840;29;20035;-81
2021/09/14 07:53:16;;;;;;;12.90;11.60;;;22.80;69.20;;;;;;4921731;29;20470;-82
2021/09/14 07:55:42;;;;;;;12.38;11.05;;;22.40;68.30;;;;;;4903829;29;20050;-82
2021/09/14 07:58:07;;;;;;;12.50;11.25;;;22.10;70.00;;;;;;4903166;29;20052;-82
2021/09/14 08:00:35;;;;;;;10.50;9.52;;;22.40;69.30;;;;;;4888915;29;20440;-82
2021/09/14 08:03:01;;;;;;;12.38;11.10;;;23.00;68.60;;;;;;4920231;29;20039;-81
2021/09/14 08:05:28;;;;;;;13.60;9.88;;;23.40;66.60;;;;;;4905582;29;20099;-80
2021/09/14 08:07:54;;;;;;;9.45;8.43;;;23.80;66.30;;;;;;4941429;29;20028;-82
2021/09/14 08:10:20;;;;;;;9.90;7.85;;;24.50;65.00;;;;;;4928392;29;20062;-83
2021/09/14 08:12:47;;;;;;;8.05;7.25;;;25.00;63.30;;;;;;4914102;29;20087;-82
2021/09/14 08:15:15;;;;;;;8.48;7.55;;;25.30;62.00;;;;;;4911182;29;20036;-81
2021/09/14 08:17:40;;;;;;;8.85;8.02;;;25.90;60.30;;;;;;4909428;29;20039;-81
2021/09/14 08:20:07;;;;;;;7.95;7.15;;;25.70;59.80;;;;;;4922150;29;20024;-82
2021/09/14 08:22:33;;;;;;;8.35;7.50;;;25.30;60.80;;;;;;4920576;29;20115;-80
2021/09/14 08:24:58;;;;;;;8.90;7.88;;;25.20;60.10;;;;;;4933972;29;20067;-81
2021/09/14 08:27:24;;;;;;;8.70;7.90;;;24.70;60.90;;;;;;4920104;29;20158;-81
2021/09/14 08:29:50;;;;;;;9.90;8.70;;;24.40;61.50;;;;;;4903313;29;20412;-80
2021/09/14 08:32:15;;;;;;;9.38;7.80;;;24.40;61.80;;;;;;4902488;29;20040;-81
2021/09/14 08:34:41;;;;;;;10.13;7.78;;;24.40;61.70;;;;;;4918821;29;20162;-82
2021/09/14 08:37:08;;;;;;;9.63;7.68;;;24.10;62.20;;;;;;4903338;29;20049;-81
2021/09/14 08:39:34;;;;;;;9.63;7.88;;;23.80;62.90;;;;;;4935171;29;20055;-82
2021/09/14 08:42:00;;;;;;;8.73;6.88;;;23.70;63.30;;;;;;4920221;29;20055;-80
2021/09/14 08:44:27;;;;;;;7.78;7.07;;;23.50;63.90;;;;;;4920190;29;20574;-82
2021/09/14 08:46:52;;;;;;;8.10;6.40;;;23.60;64.40;;;;;;4903810;29;20040;-83
2021/09/14 08:49:18;;;;;;;7.80;6.70;;;24.10;63.90;;;;;;4905269;29;20039;-82
2021/09/14 08:51:44;;;;;;;7.82;7.03;;;24.50;62.30;;;;;;4904229;29;20032;-81
2021/09/14 08:54:09;;;;;;;6.93;6.22;;;24.20;62.40;;;;;;4904314;29;20021;-82
2021/09/14 08:56:35;;;;;;;7.00;6.13;;;23.70;63.80;;;;;;4919935;29;20083;-81
2021/09/14 08:59:05;;;;;;;9.60;6.55;;;23.70;64.00;;;;;;4919649;29;20435;-81
2021/09/14 09:01:32;;;;;;;7.90;6.05;;;24.10;63.40;;;;;;4919232;29;20051;-81
2021/09/14 09:04:03;;;;;;;6.20;5.60;;;24.50;62.50;;;;;;4907451;29;20025;-82
2021/09/14 09:06:34;;;;;;;9.00;6.13;;;24.20;62.40;;;;;;4923032;29;20064;-82
2021/09/14 09:09:19;;;;;;;6.68;6.07;;;24.20;63.00;;;;;;4934714;29;20126;-83
2021/09/14 09:12:11;;;;;;;6.82;6.13;;;24.60;62.60;;;;;;4903004;29;20056;-82
2021/09/14 09:14:45;;;;;;;7.07;5.30;;;24.90;62.20;;;;;;4900163;29;20061;-82
2021/09/14 09:17:18;;;;;;;5.90;5.40;;;24.80;61.90;;;;;;4901789;29;20088;-81
2021/09/14 09:19:58;;;;;;;6.45;5.75;;;24.70;61.60;;;;;;4901565;29;20029;-84
2021/09/14 09:22:24;;;;;;;8.48;5.78;;;24.10;62.30;;;;;;4918901;29;20023;-81
2021/09/14 09:24:52;;;;;;;6.50;5.65;;;23.50;63.80;;;;;;4933196;29;20329;-82
2021/09/14 09:27:28;;;;;;;8.20;5.72;;;23.50;64.40;;;;;;4933508;29;20055;-83
2021/09/14 09:30:19;;;;;;;7.45;6.70;;;23.80;64.20;;;;;;4902186;29;20422;-82
2021/09/14 09:32:50;;;;;;;5.85;5.35;;;23.90;64.10;;;;;;4933475;29;20032;-82
2021/09/14 09:35:30;;;;;;;6.15;5.60;;;24.20;63.90;;;;;;4933054;29;20032;-82
2021/09/14 09:37:57;;;;;;;6.50;5.15;;;24.40;63.00;;;;;;4918503;29;20459;-82
2021/09/14 09:40:42;;;;;;;7.25;5.50;;;24.70;62.70;;;;;;4918105;29;20038;-82
2021/09/14 09:43:10;;;;;;;6.93;5.78;;;25.00;61.10;;;;;;4918758;29;20039;-82
2021/09/14 09:45:42;;;;;;;6.13;5.60;;;25.00;61.40;;;;;;4918562;29;20052;-83
2021/09/14 09:48:09;;;;;;;6.65;5.88;;;24.90;61.50;;;;;;4900974;29;20058;-82
2021/09/14 09:50:37;;;;;;;6.88;6.10;;;25.00;61.20;;;;;;4901467;29;20084;-81
2021/09/14 09:53:05;;;;;;;8.98;6.45;;;25.10;61.10;;;;;;4917558;29;20029;-80
2021/09/14 09:55:32;;;;;;;6.93;6.20;;;25.10;60.80;;;;;;4918536;29;20024;-82
2021/09/14 09:57:59;;;;;;;8.48;5.85;;;25.20;60.90;;;;;;4901161;29;20059;-83
2021/09/14 10:00:25;;;;;;;6.43;5.82;;;25.60;60.80;;;;;;4933155;29;20047;-81
2021/09/14 10:03:00;;;;;;;7.13;5.30;;;26.20;59.00;;;;;;4917515;29;20028;-82
2021/09/14 10:05:29;;;;;;;5.70;4.28;;;26.50;58.10;;;;;;4918066;29;20051;-81
2021/09/14 10:08:00;;;;;;;7.18;5.10;;;26.80;58.40;;;;;;4932597;29;20087;-81
2021/09/14 10:10:34;;;;;;;6.13;4.95;;;26.60;56.90;;;;;;4917652;29;20042;-80
2021/09/14 10:13:04;;;;;;;4.25;3.85;;;26.40;58.00;;;;;;4901116;29;20036;-82
2021/09/14 10:15:42;;;;;;;5.78;4.57;;;26.70;58.50;;;;;;4932700;29;20040;-83
2021/09/14 10:18:09;;;;;;;4.65;3.97;;;27.30;56.80;;;;;;4902392;29;20465;-81
2021/09/14 10:20:44;;;;;;;5.68;3.60;;;27.80;56.10;;;;;;4918054;29;20121;-82
2021/09/14 10:23:29;;;;;;;4.78;4.25;;;28.10;54.80;;;;;;4901423;29;20017;-82
2021/09/14 10:26:06;;;;;;;4.65;4.18;;;27.90;54.90;;;;;;4933005;29;20028;-81
2021/09/14 10:28:45;;;;;;;6.88;3.90;;;28.10;54.50;;;;;;4901014;29;20486;-83
2021/09/14 10:31:31;;;;;;;5.22;3.47;;;28.40;54.30;;;;;;4901104;29;20330;-82
2021/09/14 10:34:08;;;;;;;5.93;3.40;;;28.40;53.80;;;;;;4917672;29;20031;-80
2021/09/14 10:36:37;;;;;;;4.90;3.33;;;28.60;52.90;;;;;;4900712;29;20035;-81
2021/09/14 10:39:27;;;;;;;4.38;3.97;;;28.50;53.70;;;;;;4900635;29;20024;-81
2021/09/14 10:41:53;;;;;;;4.45;3.67;;;28.10;54.10;;;;;;4900122;29;20134;-80
2021/09/14 10:44:32;;;;;;;4.00;3.05;;;27.90;54.40;;;;;;4900969;29;20024;-81
2021/09/14 10:47:09;;;;;;;6.22;4.22;;;27.60;55.00;;;;;;4916702;29;20036;-82
2021/09/14 10:50:14;;;;;;;6.32;4.43;;;27.60;55.10;;;;;;4917968;29;20035;-79
2021/09/14 10:52:42;;;;;;;5.53;3.75;;;27.50;55.00;;;;;;4843411;29;20033;-83
2021/09/14 10:55:12;;;;;;;6.00;3.88;;;27.50;55.50;;;;;;4891331;29;20051;-82
2021/09/14 10:57:43;;;;;;;5.38;3.45;;;27.50;55.00;;;;;;4932053;29;20055;-81
2021/09/14 11:00:11;;;;;;;8.57;4.10;;;27.50;55.20;;;;;;4917538;29;20060;-83
2021/09/14 11:02:38;;;;;;;5.57;3.47;;;26.80;56.30;;;;;;4918238;29;20051;-81
2021/09/14 11:05:08;;;;;;;6.60;4.30;;;26.60;57.10;;;;;;4931664;29;20070;-82
2021/09/14 11:07:34;;;;;;;6.15;3.80;;;26.60;57.30;;;;;;4917495;29;20376;-81
2021/09/14 11:10:10;;;;;;;5.32;3.47;;;26.90;57.80;;;;;;4916159;29;20032;-82
2021/09/14 11:12:36;;;;;;;3.83;3.10;;;27.10;56.50;;;;;;4918279;29;20058;-81
2021/09/14 11:15:03;;;;;;;6.07;3.78;;;27.10;57.20;;;;;;4933137;29;20055;-83
2021/09/14 11:17:33;;;;;;;6.30;3.75;;;27.20;56.40;;;;;;4901031;29;20025;-82
2021/09/14 11:20:15;;;;;;;4.28;3.03;;;27.10;56.70;;;;;;4903266;29;20028;-82
2021/09/14 11:22:42;;;;;;;6.90;3.50;;;27.30;57.20;;;;;;4920055;29;20095;-82
2021/09/14 11:25:28;;;;;;;5.88;4.05;;;27.10;56.60;;;;;;4903734;29;20028;-83
2021/09/14 11:28:10;;;;;;;4.70;3.35;;;26.90;57.20;;;;;;4923083;29;20031;-81
2021/09/14 11:30:36;;;;;;;5.05;3.70;;;26.90;57.60;;;;;;4924703;29;20024;-81
2021/09/14 11:33:03;;;;;;;4.38;3.85;;;27.10;56.80;;;;;;4905408;29;20032;-82
2021/09/14 11:35:34;;;;;;;8.85;3.90;;;26.90;57.20;;;;;;4903853;29;20048;-81
2021/09/14 11:38:05;;;;;;;4.97;3.72;;;26.40;58.20;;;;;;4904402;29;20125;-81
2021/09/14 11:40:33;;;;;;;4.30;3.10;;;26.40;59.20;;;;;;4904304;29;20071;-82
2021/09/14 11:43:04;;;;;;;5.38;3.85;;;26.20;59.00;;;;;;4936038;29;20032;-82
2021/09/14 11:45:32;;;;;;;5.65;3.63;;;26.40;59.30;;;;;;4921548;29;20024;-83
2021/09/14 11:48:00;;;;;;;6.90;3.88;;;26.50;58.90;;;;;;4920903;29;20036;-81
2021/09/14 11:50:28;;;;;;;5.45;3.72;;;26.60;58.80;;;;;;4920838;29;20028;-82
2021/09/14 11:53:13;;;;;;;4.28;2.97;;;26.70;58.50;;;;;;4921407;29;20028;-82
2021/09/14 11:55:41;;;;;;;7.70;3.67;;;26.90;58.90;;;;;;4921416;29;20039;-83
2021/09/14 11:58:07;;;;;;;4.43;2.83;;;27.00;58.40;;;;;;4886748;29;20052;-82
2021/09/14 12:00:47;;;;;;;7.63;3.40;;;27.00;58.20;;;;;;4883925;29;20048;-82
2021/09/14 12:03:22;;;;;;;4.45;3.28;;;26.80;58.20;;;;;;4899917;29;20033;-82
2021/09/14 12:05:57;;;;;;;4.30;2.90;;;26.70;58.70;;;;;;4915877;29;20037;-81
2021/09/14 12:08:38;;;;;;;4.57;3.08;;;26.60;58.70;;;;;;4899573;29;20033;-82
2021/09/14 12:11:04;;;;;;;6.53;3.47;;;26.40;58.90;;;;;;4915567;29;20032;-83
2021/09/14 12:13:43;;;;;;;3.72;2.83;;;26.00;59.80;;;;;;4899712;29;20025;-84
2021/09/14 12:16:17;;;;;;;4.10;3.22;;;25.90;60.50;;;;;;4915382;29;20168;-83
2021/09/14 12:18:43;;;;;;;4.82;3.20;;;26.00;60.70;;;;;;4900299;29;20354;-81
2021/09/14 12:21:10;;;;;;;3.88;3.08;;;26.10;60.40;;;;;;4915066;29;20136;-82
2021/09/14 12:23:37;;;;;;;3.65;3.35;;;26.00;60.40;;;;;;4900891;29;20055;-82
2021/09/14 12:26:03;;;;;;;4.20;3.45;;;25.90;60.70;;;;;;4900383;29;20037;-82
2021/09/14 12:28:29;;;;;;;4.05;3.70;;;26.00;60.80;;;;;;4900628;29;20049;-82
2021/09/14 12:30:55;;;;;;;5.05;3.45;;;26.10;60.40;;;;;;4885114;29;20104;-82
2021/09/14 12:33:20;;;;;;;4.40;3.03;;;26.00;60.60;;;;;;4884350;29;20028;-83
2021/09/14 12:35:46;;;;;;;3.65;2.65;;;26.00;60.80;;;;;;4901283;29;20377;-82
2021/09/14 12:38:12;;;;;;;6.63;3.05;;;26.20;60.90;;;;;;4900015;29;20583;-83
2021/09/14 12:40:38;;;;;;;4.63;3.28;;;26.40;61.00;;;;;;4883814;29;20033;-83
2021/09/14 12:43:04;;;;;;;5.97;3.40;;;26.50;60.50;;;;;;4868513;29;20036;-83
2021/09/14 12:45:30;;;;;;;8.13;3.50;;;26.50;60.10;;;;;;4915801;29;20084;-82
2021/09/14 12:47:56;;;;;;;4.80;3.53;;;26.50;59.60;;;;;;4900396;29;20036;-81
2021/09/14 12:50:23;;;;;;;5.63;2.58;;;26.50;59.80;;;;;;4883941;29;20056;-82
2021/09/14 12:52:50;;;;;;;5.63;3.53;;;26.40;59.70;;;;;;4868379;29;20469;-83
2021/09/14 12:55:16;;;;;;;6.50;3.35;;;26.40;59.60;;;;;;4899196;29;20507;-83
2021/09/14 12:57:41;;;;;;;3.47;2.63;;;26.30;59.60;;;;;;4896208;29;20052;-82
2021/09/14 13:00:08;;;;;;;2.70;2.40;;;26.30;60.00;;;;;;4933094;29;20039;-82
2021/09/14 13:02:33;;;;;;;5.63;3.00;;;26.10;60.40;;;;;;4901987;29;20033;-81
2021/09/14 13:04:59;;;;;;;8.05;3.95;;;26.00;60.30;;;;;;4917078;29;20028;-81
2021/09/14 13:07:25;;;;;;;6.47;3.15;;;26.00;60.40;;;;;;4933222;29;20432;-82
2021/09/14 13:09:50;;;;;;;4.03;3.20;;;26.00;60.60;;;;;;4901530;29;20369;-82
2021/09/14 13:12:20;;;;;;;7.13;3.15;;;26.00;60.90;;;;;;4917404;29;20429;-81
2021/09/14 13:17:32;;;;;;;5.20;3.10;;;26.00;60.40;;;;;;4918494;29;20066;-83
2021/09/14 13:19:58;;;;;;;5.28;3.00;;;26.00;60.80;;;;;;4901538;29;20111;-80
2021/09/14 13:22:23;;;;;;;4.32;2.70;;;26.00;60.90;;;;;;4918148;29;20449;-83
2021/09/14 13:24:49;;;;;;;8.52;3.30;;;26.00;61.20;;;;;;4918170;29;20024;-82
2021/09/14 13:27:15;;;;;;;4.28;2.92;;;25.90;61.20;;;;;;4886376;29;20592;-83
2021/09/14 13:29:40;;;;;;;6.30;2.90;;;25.80;61.50;;;;;;4933722;29;20413;-82
2021/09/14 13:32:06;;;;;;;5.45;3.22;;;25.80;61.70;;;;;;4917637;29;20465;-83
2021/09/14 13:34:32;;;;;;;5.50;3.10;;;26.00;62.00;;;;;;4902058;29;20106;-83